Corwin, Kansas
Current Conditions -  °F | °C
As of 3:30 AM on Thursday 27 Nov 2014 (Local Time) from KAVK Reporting Station
Clear Clear  
Wind Chill: 21°   Ceiling: Unl
Heat Index: 27°   Visibility: 10mi
Dew Point: 19°   Wind: 5mph
Humidity: 74%   Direction: 20°NNE
Pressure: 30.49"   Gusts: NA
Location:  37.1231°N, 98.4033°W
Report Text: KAVK 270930Z AUTO 02004KT 10SM CLR M03/M07 A3049 RMK AO2
Loading
Personal Weather Stations






























Interactive Weather Map New forecast layout! Learn more

10-Day Weather Forecast

Advertisements
Track Severe Weather on mobile